createdAt,value
2023-10-23T04:44:50.232Z,97434.50
2023-10-23T04:47:16.921Z,97429.78
2023-10-23T04:49:43.554Z,97419.09
2023-10-23T04:52:10.323Z,97456.25
2023-10-23T04:54:36.962Z,97453.16
2023-10-23T04:57:04.303Z,97447.72
2023-10-23T04:59:33.957Z,97431.44
2023-10-23T05:02:00.584Z,97445.75
2023-10-23T05:04:30.906Z,97449.38
2023-10-23T05:06:58.556Z,97432.13
2023-10-23T05:09:25.271Z,97422.78
2023-10-23T05:11:52.130Z,97436.22
2023-10-23T05:14:18.964Z,97435.34
2023-10-23T05:16:45.837Z,97406.66
2023-10-23T05:19:12.551Z,97430.88
2023-10-23T05:21:39.230Z,97435.16
2023-10-23T05:24:06.272Z,97429.72
2023-10-23T05:26:32.856Z,97410.19
2023-10-23T05:28:59.684Z,97424.41
2023-10-23T05:31:26.402Z,97430.72
2023-10-23T05:33:53.250Z,97438.75
2023-10-23T05:36:20.064Z,97459.97
2023-10-23T05:38:46.880Z,97418.69
2023-10-23T05:41:13.552Z,97460.69
2023-10-23T05:43:40.239Z,97441.22
2023-10-23T05:46:07.190Z,97454.63
2023-10-23T05:48:35.059Z,97440.19
2023-10-23T05:51:06.750Z,97449.16
2023-10-23T05:53:34.303Z,97445.19
2023-10-23T05:56:04.666Z,97459.19
2023-10-23T05:58:32.313Z,97442.63
2023-10-23T06:01:04.947Z,97452.56
2023-10-23T06:03:31.870Z,97443.78
2023-10-23T06:05:58.523Z,97445.88
2023-10-23T06:08:25.199Z,97457.56
2023-10-23T06:10:51.868Z,97432.69
2023-10-23T06:13:18.535Z,97473.13
2023-10-23T06:15:45.934Z,97464.13
2023-10-23T06:18:12.798Z,97487.25
2023-10-23T19:04:55.586Z,96807.50
2023-10-23T19:07:22.553Z,96784.47
2023-10-23T19:09:49.224Z,96814.31
2023-10-23T19:12:16.191Z,96821.50
2023-10-23T19:14:42.816Z,96828.59
2023-10-23T19:17:11.297Z,96824.25
2023-10-23T19:19:41.262Z,96802.09
2023-10-23T19:22:08.084Z,96815.19
2023-10-23T19:24:34.792Z,96836.47
2023-10-23T19:27:02.971Z,96827.44
2023-10-23T19:29:29.600Z,96834.56
2023-10-23T19:31:56.690Z,96831.03
2023-10-23T19:34:23.709Z,96826.66
2023-10-23T19:36:50.650Z,96833.63
2023-10-23T19:39:17.588Z,96814.22
2023-10-23T19:41:49.281Z,96791.88
2023-10-23T19:44:16.565Z,96809.44
2023-10-23T19:46:43.742Z,96834.13
2023-10-23T19:49:10.823Z,96817.19
2023-10-23T19:51:42.369Z,96834.09
2023-10-23T19:54:09.450Z,96830.53
2023-10-23T19:56:56.980Z,96813.78
2023-10-23T19:59:24.130Z,96822.63
2023-10-23T20:01:50.919Z,96811.22
2023-10-23T20:04:18.094Z,96806.94
2023-10-23T20:06:44.968Z,96807.91
2023-10-23T20:09:11.645Z,96807.50
2023-10-23T20:11:38.347Z,96818.25
2023-10-23T20:14:05.573Z,96792.22
2023-10-23T20:16:32.341Z,96790.44
2023-10-23T20:18:59.147Z,96822.44
2023-10-23T20:21:25.894Z,96803.16
2023-10-23T20:23:52.627Z,96810.25
2023-10-23T20:26:19.289Z,96786.47
2023-10-23T20:28:46.201Z,96783.00
2023-10-23T20:31:19.059Z,96792.78
2023-10-23T20:33:47.103Z,96790.97
2023-10-23T20:36:13.818Z,96807.84
2023-10-23T20:38:40.500Z,96798.06
2023-10-23T20:41:07.216Z,96809.59
2023-10-23T20:43:34.070Z,96787.41
2023-10-23T20:46:00.971Z,96812.13
2023-10-23T20:48:27.766Z,96788.13
2023-10-23T20:50:54.505Z,96784.59
2023-10-23T20:53:21.838Z,96783.63
2023-10-23T20:55:52.566Z,96775.47
2023-10-23T20:58:19.854Z,96798.00
2023-10-23T21:00:47.060Z,96774.91
2023-10-23T21:03:14.668Z,96788.03
2023-10-23T21:05:41.548Z,96781.00
2023-10-23T21:08:08.570Z,96789.06
2023-10-23T21:10:35.607Z,96795.09
2023-10-23T21:13:02.468Z,96791.66
2023-10-23T21:15:29.418Z,96766.75
2023-10-23T21:17:56.815Z,96784.47
2023-10-23T21:20:25.408Z,96767.44
2023-10-23T21:22:52.140Z,96776.28
2023-10-23T21:25:18.843Z,96792.88
2023-10-23T21:27:45.524Z,96776.00
